Air Quality Table

TIMESTAMP NO2 O3 PM2.5 TEMP HUM AIRPRES WS WD NO
2023-03-30 01:00 9.34 µg/m3 81.64 µg/m3 3.32 µg/m3 13.46 °C 73.33 % 1,018.65 mbar 1.16 m/s 183.5 Deg 0.49 µg/m3
2023-03-29 17:00 9.91 µg/m3 92.42 µg/m3 3.99 µg/m3 15.6 °C 56.11 % 1,019.59 mbar 2.91 m/s 153.28 Deg 2.84 µg/m3
2023-03-29 09:00 27.09 µg/m3 70.35 µg/m3 3.83 µg/m3 13.32 °C 65.13 % 1,018.02 mbar 2.24 m/s 112.16 Deg 5.62 µg/m3
2023-03-29 01:00 3.7 µg/m3 95.62 µg/m3 3.7 µg/m3 14.89 °C 68.88 % 1,014.89 mbar 1.64 m/s 176.35 Deg 0.13 µg/m3
2023-03-28 17:00 3.2 µg/m3 93.68 µg/m3 9.13 µg/m3 17.46 °C 62.21 % 1,011.27 mbar 1.76 m/s 299.92 Deg 0.73 µg/m3
2023-03-28 09:00 5.04 µg/m3 87.69 µg/m3 5.62 µg/m3 14.3 °C 73.43 % 1,007.47 mbar 1.59 m/s 307.37 Deg 0.44 µg/m3
2023-03-28 01:00 1.52 µg/m3 96.61 µg/m3 6.65 µg/m3 15.04 °C 71.11 % 1,005.18 mbar 1.8 m/s 301.35 Deg 0.11 µg/m3
2023-03-27 17:00 5.62 µg/m3 91.92 µg/m3 16.42 µg/m3 18.04 °C 67.44 % 1,003.35 mbar 1.98 m/s 291.29 Deg 1.19 µg/m3
2023-03-27 09:00 8.85 µg/m3 99.67 µg/m3 9.91 µg/m3 16.22 °C 75.6 % 1,002.47 mbar 1.57 m/s 294.61 Deg 0.38 µg/m3
2023-03-27 01:00 9.92 µg/m3 88.52 µg/m3 4.82 µg/m3 16.63 °C 60.91 % 1,004.40 mbar 1.01 m/s 183.64 Deg 0.29 µg/m3
2023-03-26 17:00 2.02 µg/m3 98.34 µg/m3 7.67 µg/m3 19.69 °C 53.75 % 1,007.39 mbar 1.74 m/s 289.35 Deg 0.36 µg/m3
2023-03-26 09:00 5.52 µg/m3 77.77 µg/m3 5.47 µg/m3 15.12 °C 82.06 % 1,007.75 mbar 0.93 m/s 295.83 Deg 0.4 µg/m3
2023-03-26 01:00 5.94 µg/m3 98.18 µg/m3 8.25 µg/m3 15.45 °C 81.96 % 1,007.46 mbar 1.17 m/s 297.77 Deg 0.14 µg/m3
2023-03-25 17:00 5.15 µg/m3 98.32 µg/m3 11.06 µg/m3 18.4 °C 72.65 % 1,007.48 mbar 1.75 m/s 289.81 Deg 0.87 µg/m3
2023-03-25 09:00 7.74 µg/m3 78.69 µg/m3 6.2 µg/m3 14.21 °C 87.03 % 1,007.88 mbar 1.19 m/s 265.62 Deg 0.67 µg/m3
2023-03-25 01:00 6.27 µg/m3 85.35 µg/m3 7.22 µg/m3 14.13 °C 85.28 % 1,009.40 mbar 1.07 m/s 264.68 Deg 0.19 µg/m3
2023-03-24 17:00 5.6 µg/m3 97.34 µg/m3 11.2 µg/m3 18.75 °C 62.35 % 1,010.07 mbar 1.5 m/s 285.79 Deg 0.94 µg/m3
2023-03-24 09:00 20.21 µg/m3 57.1 µg/m3 10.58 µg/m3 13.23 °C 86.58 % 1,009.24 mbar 0.45 m/s 202.69 Deg 9.04 µg/m3
2023-03-24 01:00 9.43 µg/m3 85.24 µg/m3 9.15 µg/m3 14.54 °C 83.44 % 1,008.50 mbar 0.88 m/s 314.85 Deg 0.28 µg/m3
2023-03-23 17:00 10.08 µg/m3 91.91 µg/m3 8.68 µg/m3 17.85 °C 64.68 % 1,006.92 mbar 1.67 m/s 239.74 Deg 1.93 µg/m3

It is to be noted that the data is provisional and subject to quality assurance procedures. For validated data kindly refer your request to contact.air@era.org.mt